createdAt,value
2022-09-10T00:01:30.842Z,6.99
2022-09-10T00:03:59.912Z,6.93
2022-09-10T00:06:38.828Z,6.90
2022-09-10T00:09:08.278Z,6.87
2022-09-10T00:11:39.594Z,6.82
2022-09-10T00:14:09.257Z,6.77
2022-09-10T00:16:37.934Z,6.71
2022-09-10T00:19:06.916Z,6.67
2022-09-10T00:21:36.756Z,6.61
2022-09-10T00:24:05.908Z,6.60
2022-09-10T00:26:35.687Z,6.61
2022-09-10T00:29:04.204Z,6.60
2022-09-10T00:31:33.795Z,6.57
2022-09-10T00:34:03.312Z,6.54
2022-09-10T00:36:33.417Z,6.49
2022-09-10T00:39:05.221Z,6.44
2022-09-10T00:41:34.493Z,6.43
2022-09-10T00:44:04.644Z,6.47
2022-09-10T00:46:35.295Z,6.51
2022-09-10T00:49:04.718Z,6.59
2022-09-10T00:51:35.327Z,6.61
2022-09-10T00:54:05.849Z,6.59
2022-09-10T00:56:35.538Z,6.54
2022-09-10T00:59:04.540Z,6.48
2022-09-10T01:01:34.069Z,6.42
2022-09-10T01:04:18.595Z,6.41
2022-09-10T01:09:31.002Z,6.36
2022-09-10T01:12:06.374Z,6.34
2022-09-10T01:14:44.414Z,6.30
2022-09-10T01:17:20.431Z,6.29
2022-09-10T01:19:59.934Z,6.26
2022-09-10T01:22:33.970Z,6.24
2022-09-10T01:25:08.638Z,6.22
2022-09-10T01:27:41.592Z,6.22
2022-09-10T01:30:12.069Z,6.21
2022-09-10T01:32:58.271Z,6.16
2022-09-10T01:35:30.592Z,6.14
2022-09-10T01:38:03.543Z,6.11
2022-09-10T01:40:32.714Z,6.08
2022-09-10T01:43:03.603Z,6.07
2022-09-10T01:45:34.551Z,6.07
2022-09-10T01:48:15.473Z,6.06
2022-09-10T01:50:47.891Z,6.05
2022-09-10T01:53:28.314Z,6.03
2022-09-10T01:56:00.566Z,6.03
2022-09-10T01:58:33.015Z,6.04
2022-09-10T02:01:09.515Z,6.04
2022-09-10T02:03:39.877Z,6.05
2022-09-10T02:06:13.350Z,6.04
2022-09-10T02:08:45.663Z,5.85
2022-09-10T02:11:14.646Z,6.02
2022-09-10T02:13:44.816Z,5.97
2022-09-10T02:16:16.162Z,5.90
2022-09-10T02:18:45.188Z,5.86
2022-09-10T02:21:16.101Z,5.81
2022-09-10T02:23:46.039Z,5.76
2022-09-10T02:26:15.243Z,5.68
2022-09-10T02:28:45.307Z,5.66
2022-09-10T02:31:14.429Z,5.64
2022-09-10T02:33:43.815Z,5.60
2022-09-10T02:36:12.884Z,5.56
2022-09-10T02:38:41.652Z,5.55
2022-09-10T02:41:10.096Z,5.55
2022-09-10T02:43:38.876Z,5.52
2022-09-10T02:55:00.242Z,5.49
2022-09-10T02:57:29.064Z,5.52
2022-09-10T02:59:58.000Z,5.53
2022-09-10T03:02:26.958Z,5.52
2022-09-10T03:04:55.136Z,5.57
2022-09-10T03:07:23.355Z,5.61
2022-09-10T03:09:52.074Z,5.68
2022-09-10T03:12:22.944Z,5.75
2022-09-10T03:14:51.759Z,5.82
2022-09-10T03:17:20.483Z,5.87
2022-09-10T03:19:49.003Z,5.95
2022-09-10T03:22:17.342Z,6.05
2022-09-10T03:24:47.244Z,6.13
2022-09-10T03:27:16.635Z,6.20
2022-09-10T03:32:45.060Z,6.43
2022-09-10T03:35:13.834Z,6.56
2022-09-10T03:37:42.448Z,6.72
2022-09-10T03:40:11.633Z,6.91
2022-09-10T03:42:40.642Z,7.06
2022-09-10T03:45:09.741Z,7.15
2022-09-10T03:47:39.601Z,7.25
2022-09-10T03:50:09.953Z,7.30
2022-09-10T03:52:38.340Z,7.41
2022-09-10T03:55:08.359Z,7.46
2022-09-10T03:57:39.085Z,7.50
2022-09-10T04:00:08.961Z,7.56
2022-09-10T04:02:37.283Z,7.66
2022-09-10T04:05:06.991Z,7.81
2022-09-10T04:07:37.169Z,7.97
2022-09-10T04:10:06.782Z,8.11
2022-09-10T04:12:36.609Z,8.28
2022-09-10T04:15:05.294Z,8.44
2022-09-10T04:17:34.212Z,8.58
2022-09-10T04:20:03.569Z,8.67
2022-09-10T04:22:32.325Z,8.73
2022-09-10T04:25:02.344Z,8.78
2022-09-10T04:27:32.063Z,8.80
2022-09-10T04:30:01.203Z,8.81
2022-09-10T04:32:29.954Z,8.78
2022-09-10T04:34:59.213Z,8.84
2022-09-10T04:37:28.604Z,9.01
2022-09-10T04:39:57.269Z,9.16
2022-09-10T04:42:28.601Z,9.31
2022-09-10T04:44:58.183Z,9.42
2022-09-10T04:47:27.851Z,9.55
2022-09-10T04:52:54.895Z,9.85
2022-09-10T04:55:23.655Z,9.97
2022-09-10T04:57:54.355Z,10.11
2022-09-10T05:00:23.312Z,10.21
2022-09-10T05:02:52.257Z,10.34
2022-09-10T05:05:21.132Z,10.45
2022-09-10T05:07:49.449Z,10.58
2022-09-10T05:10:18.323Z,10.68
2022-09-10T05:12:46.958Z,10.77
2022-09-10T05:15:17.893Z,10.91
2022-09-10T05:17:47.922Z,11.04
2022-09-10T05:20:17.023Z,11.11
2022-09-10T05:22:45.411Z,11.17
2022-09-10T05:25:13.740Z,11.19
2022-09-10T05:27:42.941Z,11.24
2022-09-10T05:30:13.139Z,11.28
2022-09-10T05:32:43.299Z,11.35
2022-09-10T05:35:12.602Z,11.46
2022-09-10T05:37:41.884Z,11.41
2022-09-10T05:40:11.841Z,11.50
2022-09-10T05:42:41.827Z,11.54
2022-09-10T05:45:12.464Z,11.55
2022-09-10T05:47:41.521Z,11.66
2022-09-10T05:50:12.772Z,11.73
2022-09-10T05:52:41.609Z,11.74
2022-09-10T05:55:13.211Z,11.90
2022-09-10T06:03:08.263Z,12.29
2022-09-10T06:05:38.330Z,12.21
2022-09-10T06:08:08.987Z,12.46
2022-09-10T06:10:37.522Z,12.51
2022-09-10T06:13:07.316Z,12.60
2022-09-10T06:15:36.391Z,12.63
2022-09-10T06:18:05.097Z,12.61
2022-09-10T06:20:33.487Z,12.64
2022-09-10T06:23:03.629Z,12.68
2022-09-10T06:25:32.746Z,12.66
2022-09-10T06:28:02.478Z,12.76
2022-09-10T06:30:31.045Z,12.88
2022-09-10T06:32:59.631Z,12.88
2022-09-10T06:35:30.413Z,12.94
2022-09-10T06:38:00.542Z,13.07
2022-09-10T06:40:31.111Z,13.04
2022-09-10T06:43:02.722Z,13.15
2022-09-10T06:45:31.642Z,13.24
2022-09-10T06:50:54.088Z,13.38
2022-09-10T06:53:23.915Z,13.32
2022-09-10T06:55:54.830Z,13.17
2022-09-10T06:58:25.208Z,13.14
2022-09-10T07:00:53.798Z,13.21
2022-09-10T07:03:22.945Z,13.33
2022-09-10T07:05:52.550Z,13.53
2022-09-10T07:08:21.219Z,13.65
2022-09-10T07:10:49.582Z,13.72
2022-09-10T07:13:19.410Z,13.75
2022-09-10T07:15:49.153Z,13.91
2022-09-10T07:18:17.359Z,14.03
2022-09-10T07:20:46.342Z,14.02
2022-09-10T07:23:15.537Z,14.13
2022-09-10T07:25:44.011Z,14.26
2022-09-10T07:28:14.656Z,14.25
2022-09-10T07:30:45.438Z,14.22
2022-09-10T07:33:13.810Z,14.14
2022-09-10T07:35:42.263Z,14.17
2022-09-10T07:38:15.669Z,14.28
2022-09-10T07:40:44.679Z,14.43
2022-09-10T07:43:13.084Z,14.42
2022-09-10T07:45:41.916Z,14.42
2022-09-10T07:48:13.334Z,14.36
2022-09-10T07:50:41.659Z,14.32
2022-09-10T07:53:11.928Z,14.36
2022-09-10T07:55:40.372Z,14.25
2022-09-10T07:58:11.688Z,14.22
2022-09-10T08:00:40.469Z,14.32
2022-09-10T08:03:08.779Z,14.42
2022-09-10T08:05:39.734Z,14.43
2022-09-10T08:08:08.034Z,14.44
2022-09-10T08:10:36.530Z,14.56
2022-09-10T08:13:05.002Z,14.44
2022-09-10T08:15:33.749Z,14.52
2022-09-10T08:18:02.427Z,14.66
2022-09-10T08:20:31.001Z,14.76
2022-09-10T08:23:00.910Z,14.77
2022-09-10T08:25:29.468Z,14.90
2022-09-10T08:27:58.330Z,15.03
2022-09-10T08:33:41.685Z,15.12
2022-09-10T08:36:12.178Z,15.23
2022-09-10T08:38:42.597Z,15.37
2022-09-10T08:41:13.445Z,15.51
2022-09-10T08:43:44.606Z,15.50
2022-09-10T08:46:17.521Z,15.33
2022-09-10T08:49:16.400Z,15.06
2022-09-10T08:51:46.935Z,14.73
2022-09-10T08:54:18.885Z,14.80
2022-09-10T08:56:49.210Z,14.88
2022-09-10T08:59:21.748Z,14.92
2022-09-10T09:01:53.114Z,15.01
2022-09-10T09:04:28.895Z,15.05
2022-09-10T09:07:00.594Z,15.19
2022-09-10T09:09:30.588Z,15.24
2022-09-10T09:12:03.198Z,15.40
2022-09-10T09:14:38.358Z,15.51
2022-09-10T09:17:19.903Z,15.62
2022-09-10T09:19:54.682Z,15.76
2022-09-10T09:22:27.720Z,15.83
2022-09-10T09:24:58.753Z,15.84
2022-09-10T09:27:28.569Z,15.84
2022-09-10T09:30:00.170Z,15.92
2022-09-10T09:32:31.511Z,16.04
2022-09-10T09:35:05.970Z,16.14
2022-09-10T09:37:35.298Z,16.28
2022-09-10T09:40:09.686Z,16.43
2022-09-10T09:42:45.819Z,16.50
2022-09-10T09:45:20.981Z,16.27
2022-09-10T09:47:50.288Z,16.20
2022-09-10T09:50:19.768Z,16.21
2022-09-10T09:52:48.478Z,16.22
2022-09-10T09:55:24.852Z,16.17
2022-09-10T09:58:14.524Z,16.29
2022-09-10T10:00:44.479Z,16.32
2022-09-10T10:03:16.805Z,16.33
2022-09-10T10:05:46.076Z,16.32
2022-09-10T10:08:31.171Z,16.72
2022-09-10T10:11:01.090Z,17.43
2022-09-10T10:13:37.501Z,18.27
2022-09-10T10:16:16.602Z,19.24
2022-09-10T10:18:45.394Z,20.07
2022-09-10T10:21:16.227Z,20.84
2022-09-10T10:23:44.869Z,21.80
2022-09-10T10:29:20.930Z,24.06
2022-09-10T10:31:49.786Z,25.07
2022-09-10T10:34:30.879Z,25.67
2022-09-10T10:37:07.856Z,25.95
2022-09-10T10:39:44.649Z,26.23
2022-09-10T10:42:18.810Z,26.12
2022-09-10T10:45:00.229Z,26.68
2022-09-10T10:47:38.333Z,27.01
2022-09-10T10:50:14.067Z,27.59
2022-09-10T10:52:49.176Z,28.45
2022-09-10T10:55:23.350Z,28.99
2022-09-10T10:58:01.885Z,29.56
2022-09-10T11:00:33.884Z,29.80
2022-09-10T11:03:05.197Z,30.51
2022-09-10T11:08:27.274Z,31.35
2022-09-10T11:11:00.710Z,32.00
2022-09-10T11:13:33.242Z,31.85
2022-09-10T11:16:05.860Z,32.20
2022-09-10T11:18:36.895Z,32.74
2022-09-10T11:21:09.556Z,33.31
2022-09-10T11:23:41.128Z,33.28
2022-09-10T11:26:13.317Z,32.86
2022-09-10T11:28:45.174Z,33.11
2022-09-10T11:31:17.435Z,32.99
2022-09-10T11:33:49.687Z,32.91
2022-09-10T11:36:25.428Z,32.74
2022-09-10T11:38:59.670Z,32.40
2022-09-10T11:41:29.870Z,32.32
2022-09-10T11:44:10.878Z,32.50
2022-09-10T11:46:43.231Z,33.30
2022-09-10T11:49:16.742Z,33.23
2022-09-10T11:51:46.494Z,33.22
2022-09-10T11:54:16.297Z,33.52
2022-09-10T11:56:53.064Z,33.04
2022-09-10T11:59:32.724Z,33.21
2022-09-10T12:02:16.574Z,33.90
2022-09-10T12:04:47.865Z,34.26
2022-09-10T12:07:22.062Z,34.80
2022-09-10T12:09:53.047Z,35.23
2022-09-10T12:12:25.483Z,35.61
2022-09-10T12:14:54.127Z,35.88
2022-09-10T12:17:27.520Z,36.08
2022-09-10T12:20:03.731Z,36.03
2022-09-10T12:22:35.874Z,35.99
2022-09-10T12:25:06.527Z,35.73
2022-09-10T12:27:45.589Z,35.30
2022-09-10T12:30:35.017Z,35.64
2022-09-10T12:33:26.655Z,35.64
2022-09-10T12:35:55.176Z,35.78
2022-09-10T12:38:42.051Z,35.72
2022-09-10T12:41:11.387Z,35.47
2022-09-10T12:43:54.678Z,35.46
2022-09-10T12:46:25.859Z,35.56
2022-09-10T12:49:11.067Z,35.90
2022-09-10T12:51:46.424Z,36.08
2022-09-10T12:54:28.190Z,36.06
2022-09-10T12:57:12.941Z,35.94
2022-09-10T13:00:05.638Z,36.02
2022-09-10T13:02:35.434Z,36.21
2022-09-10T13:05:07.630Z,36.48
2022-09-10T13:07:41.970Z,36.52
2022-09-10T13:10:21.947Z,36.49
2022-09-10T13:12:53.452Z,36.42
2022-09-10T13:15:24.145Z,36.48
2022-09-10T13:18:11.713Z,36.45
2022-09-10T13:20:41.493Z,36.52
2022-09-10T13:23:21.552Z,36.90
2022-09-10T13:25:50.083Z,37.04
2022-09-10T13:28:38.467Z,37.10
2022-09-10T13:31:12.092Z,37.22
2022-09-10T13:33:49.886Z,36.04
2022-09-10T13:36:26.240Z,35.91
2022-09-10T13:39:06.899Z,36.54
2022-09-10T13:41:53.149Z,36.68
2022-09-10T13:44:41.695Z,36.49
2022-09-10T13:47:12.624Z,36.09
2022-09-10T13:49:47.325Z,35.55
2022-09-10T13:52:19.316Z,35.49
2022-09-10T13:54:49.821Z,35.46
2022-09-10T13:57:20.672Z,35.35
2022-09-10T13:59:50.857Z,35.36
2022-09-10T14:02:21.501Z,36.00
2022-09-10T14:04:52.047Z,35.96
2022-09-10T14:07:23.000Z,35.95
2022-09-10T14:09:52.511Z,35.79
2022-09-10T14:12:29.022Z,35.61
2022-09-10T14:14:59.517Z,35.72
2022-09-10T14:17:30.456Z,35.56
2022-09-10T14:20:01.551Z,35.23
2022-09-10T14:22:33.842Z,35.33
2022-09-10T14:25:04.409Z,35.39
2022-09-10T14:27:33.849Z,35.64
2022-09-10T14:30:17.841Z,35.66
2022-09-10T14:32:46.862Z,35.54
2022-09-10T14:35:34.550Z,35.43
2022-09-10T14:38:09.359Z,35.19
2022-09-10T14:40:38.562Z,35.02
2022-09-10T14:43:15.592Z,34.84
2022-09-10T14:45:46.410Z,34.76
2022-09-10T14:48:38.039Z,34.61
2022-09-10T14:51:17.910Z,34.08
2022-09-10T14:53:51.787Z,33.67
2022-09-10T14:56:25.074Z,33.24
2022-09-10T14:58:59.164Z,33.11
2022-09-10T15:01:28.410Z,32.64
2022-09-10T15:03:57.119Z,32.42
2022-09-10T15:06:26.989Z,32.16
2022-09-10T15:08:57.586Z,31.85
2022-09-10T15:11:27.885Z,31.58
2022-09-10T15:13:59.483Z,31.42
2022-09-10T15:16:28.416Z,30.99
2022-09-10T15:18:58.318Z,30.29
2022-09-10T15:24:14.401Z,28.58
2022-09-10T15:26:44.203Z,27.65
2022-09-10T15:29:13.331Z,26.66
2022-09-10T15:31:42.224Z,26.21
2022-09-10T15:34:11.668Z,25.83
2022-09-10T15:36:41.266Z,25.50
2022-09-10T15:39:12.639Z,24.97
2022-09-10T15:41:48.454Z,23.74
2022-09-10T15:44:18.580Z,22.40
2022-09-10T15:46:47.508Z,21.22
2022-09-10T15:49:15.931Z,20.35
2022-09-10T15:51:44.277Z,19.60
2022-09-10T15:54:12.801Z,19.01
2022-09-10T15:56:44.823Z,18.49
2022-09-10T15:59:16.799Z,18.02
2022-09-10T16:01:45.064Z,17.62
2022-09-10T16:04:15.084Z,17.23
2022-09-10T16:06:44.269Z,16.92
2022-09-10T16:09:16.633Z,16.63
2022-09-10T16:11:45.599Z,16.40
2022-09-10T16:14:17.045Z,16.16
2022-09-10T16:16:46.743Z,15.96
2022-09-10T16:19:16.032Z,15.74
2022-09-10T16:21:46.379Z,15.54
2022-09-10T16:24:14.630Z,15.35
2022-09-10T16:27:02.826Z,15.20
2022-09-10T16:29:34.156Z,15.09
2022-09-10T16:32:02.881Z,15.00
2022-09-10T16:34:33.868Z,14.93
2022-09-10T16:37:03.553Z,14.83
2022-09-10T16:39:32.077Z,14.76
2022-09-10T16:42:00.616Z,14.70
2022-09-10T16:44:30.935Z,14.62
2022-09-10T16:47:01.032Z,14.54
2022-09-10T16:49:29.970Z,14.49
2022-09-10T16:51:59.288Z,14.43
2022-09-10T16:54:30.450Z,14.40
2022-09-10T16:56:59.442Z,14.12
2022-09-10T16:59:28.518Z,14.24
2022-09-10T17:02:00.739Z,14.16
2022-09-10T17:04:32.807Z,14.12
2022-09-10T17:07:01.692Z,14.04
2022-09-10T17:09:35.490Z,13.99
2022-09-10T17:12:04.221Z,13.98
2022-09-10T17:14:34.214Z,13.93
2022-09-10T17:17:02.687Z,13.86
2022-09-10T17:19:35.212Z,13.72
2022-09-10T17:22:06.887Z,13.63
2022-09-10T17:24:36.869Z,13.58
2022-09-10T17:27:05.698Z,13.48
2022-09-10T17:29:34.495Z,13.41
2022-09-10T17:32:02.891Z,13.36
2022-09-10T17:34:34.169Z,13.33
2022-09-10T17:37:02.708Z,13.32
2022-09-10T17:39:31.687Z,13.31
2022-09-10T17:42:00.452Z,13.26
2022-09-10T17:44:28.952Z,13.24
2022-09-10T17:46:57.503Z,13.26
2022-09-10T17:49:26.310Z,13.22
2022-09-10T17:51:57.008Z,13.20
2022-09-10T17:54:25.582Z,13.19
2022-09-10T17:56:54.041Z,13.08
2022-09-10T17:59:25.009Z,13.04
2022-09-10T18:01:53.929Z,13.00
2022-09-10T18:04:22.973Z,12.92
2022-09-10T18:06:52.703Z,12.89
2022-09-10T18:09:23.774Z,12.88
2022-09-10T18:11:52.411Z,12.87
2022-09-10T18:14:22.059Z,12.80
2022-09-10T18:16:51.694Z,12.78
2022-09-10T18:19:19.909Z,12.72
2022-09-10T18:21:48.593Z,12.69
2022-09-10T18:24:19.283Z,12.65
2022-09-10T18:26:50.030Z,12.58
2022-09-10T18:29:19.433Z,12.45
2022-09-10T18:31:48.598Z,12.37
2022-09-10T18:34:22.620Z,12.31
2022-09-10T18:36:53.647Z,12.32
2022-09-10T18:39:22.259Z,12.30
2022-09-10T18:41:52.524Z,12.30
2022-09-10T18:44:22.475Z,12.28
2022-09-10T18:46:52.885Z,12.24
2022-09-10T18:49:22.291Z,12.24
2022-09-10T18:51:52.336Z,12.24
2022-09-10T18:54:21.346Z,12.20
2022-09-10T18:56:50.565Z,12.20
2022-09-10T18:59:21.391Z,12.19
2022-09-10T19:01:50.452Z,12.16
2022-09-10T19:04:20.518Z,12.13
2022-09-10T19:06:49.939Z,12.09
2022-09-10T19:09:19.080Z,12.07
2022-09-10T19:11:52.709Z,12.05
2022-09-10T19:14:27.326Z,12.04
2022-09-10T19:16:56.593Z,12.04
2022-09-10T19:19:26.084Z,12.05
2022-09-10T19:21:55.796Z,12.00
2022-09-10T19:24:44.113Z,11.94
2022-09-10T19:27:14.342Z,11.99
2022-09-10T19:29:44.646Z,11.97
2022-09-10T19:32:14.826Z,11.93
2022-09-10T19:34:43.151Z,11.88
2022-09-10T19:37:11.518Z,11.91
2022-09-10T19:39:39.809Z,11.93
2022-09-10T19:42:08.227Z,11.89
2022-09-10T19:44:36.847Z,11.86
2022-09-10T19:47:06.999Z,11.84
2022-09-10T19:49:35.547Z,11.81
2022-09-10T19:52:04.448Z,11.81
2022-09-10T19:54:32.655Z,11.74
2022-09-10T19:57:00.935Z,11.69
2022-09-10T19:59:29.336Z,11.53
2022-09-10T20:01:57.797Z,11.48
2022-09-10T20:04:28.013Z,11.39
2022-09-10T20:06:56.796Z,11.31
2022-09-10T20:09:25.072Z,11.23
2022-09-10T20:11:53.908Z,11.14
2022-09-10T20:14:22.265Z,11.07
2022-09-10T20:16:51.329Z,11.02
2022-09-10T20:19:22.133Z,11.02
2022-09-10T20:21:52.286Z,10.97
2022-09-10T20:24:21.026Z,10.92
2022-09-10T20:26:49.501Z,10.90
2022-09-10T20:29:19.548Z,10.87
2022-09-10T20:31:50.004Z,10.81
2022-09-10T20:34:19.755Z,10.80
2022-09-10T20:36:48.878Z,10.81
2022-09-10T20:39:19.943Z,10.80
2022-09-10T20:41:48.607Z,10.82
2022-09-10T20:44:17.691Z,10.82
2022-09-10T20:46:48.708Z,10.77
2022-09-10T20:49:17.691Z,10.77
2022-09-10T20:51:47.790Z,10.76
2022-09-10T20:54:16.991Z,10.75
2022-09-10T20:56:47.582Z,10.73
2022-09-10T20:59:19.382Z,10.71
2022-09-10T21:01:50.892Z,10.69
2022-09-10T21:04:21.699Z,10.68
2022-09-10T21:06:50.051Z,10.64
2022-09-10T21:09:18.540Z,10.62
2022-09-10T21:11:53.015Z,10.59
2022-09-10T21:17:32.977Z,10.59
2022-09-10T21:20:03.318Z,10.58
2022-09-10T21:22:32.112Z,10.55
2022-09-10T21:25:00.789Z,10.48
2022-09-10T21:27:32.920Z,10.43
2022-09-10T21:30:01.861Z,10.40
2022-09-10T21:32:31.898Z,10.37
2022-09-10T21:35:00.708Z,10.32
2022-09-10T21:40:18.097Z,10.26
2022-09-10T21:42:48.165Z,10.23
2022-09-10T21:45:25.651Z,10.24
2022-09-10T21:47:54.632Z,10.25
2022-09-10T21:50:23.180Z,10.26
2022-09-10T21:59:00.165Z,10.25
2022-09-10T22:01:29.950Z,10.20
2022-09-10T22:03:59.732Z,10.23
2022-09-10T22:06:29.119Z,10.25
2022-09-10T22:08:59.395Z,10.25
2022-09-10T22:11:29.608Z,10.23
2022-09-10T22:14:03.070Z,10.20
2022-09-10T22:16:32.542Z,10.21
2022-09-10T22:19:01.711Z,10.25
2022-09-10T22:21:30.473Z,10.26
2022-09-10T22:23:58.819Z,10.25
2022-09-10T22:26:28.290Z,10.27
2022-09-10T22:28:57.597Z,10.26
2022-09-10T22:31:28.745Z,10.23
2022-09-10T22:33:57.610Z,10.20
2022-09-10T22:36:29.133Z,10.15
2022-09-10T22:38:59.454Z,10.10
2022-09-10T22:41:28.455Z,10.07
2022-09-10T22:43:57.498Z,10.02
2022-09-10T22:46:28.521Z,10.01
2022-09-10T22:48:57.126Z,10.00
2022-09-10T22:51:26.510Z,9.99
2022-09-10T22:53:55.283Z,9.96
2022-09-10T22:56:24.897Z,9.90
2022-09-10T22:58:53.455Z,9.87
2022-09-10T23:01:22.946Z,9.88
2022-09-10T23:03:53.341Z,9.84
2022-09-10T23:06:22.965Z,9.80
2022-09-10T23:08:53.142Z,9.78
2022-09-10T23:11:22.515Z,9.76
2022-09-10T23:13:52.650Z,9.73
2022-09-10T23:16:22.005Z,9.73
2022-09-10T23:18:52.226Z,9.71
2022-09-10T23:21:23.375Z,9.71
2022-09-10T23:23:52.497Z,9.70
2022-09-10T23:26:20.750Z,9.70
2022-09-10T23:28:49.386Z,9.67
2022-09-10T23:31:18.603Z,9.65
2022-09-10T23:33:48.907Z,9.64
2022-09-10T23:36:17.292Z,9.61
2022-09-10T23:38:47.516Z,9.57
2022-09-10T23:41:16.183Z,9.55
2022-09-10T23:43:44.873Z,9.52
2022-09-10T23:46:13.384Z,9.48
2022-09-10T23:48:43.132Z,9.48
2022-09-10T23:51:13.910Z,9.51
2022-09-10T23:53:42.995Z,9.49
2022-09-10T23:56:12.731Z,9.49
2022-09-10T23:58:41.071Z,9.49
